Thursday, April 26, 2018, 5:40 AM EDT
Back to Local

KLGA, New York La Guardia Airport

Location: Astoria, NY, United States Lat: 40.783
Local Time: 5:40 AM EDT ( 9:40 GMT) Lon: -73.883
Time Zone: US/Eastern Elev: 22 ft

Show me the last for .
Show Decoded

2018-04-26 04:51 METAR KLGA 260851Z 30014KT 10SM FEW050 SCT100 SCT220 14/11 A2959 RMK AO2
                 RAB0755E07 SLP020 P0000 60000 T01440111 55003 =
2018-04-26 03:51 METAR KLGA 260751Z 31005KT 8SM FEW008 BKN035 OVC045 14/12 A2958 RMK AO2 SLP015
                 T01390122 =
2018-04-26 03:43 METAR KLGA 260743Z 30004KT 9SM FEW008 BKN035 OVC045 14/13 A2958 RMK AO2
                 T01440128 =
2018-04-26 02:51 METAR KLGA 260651Z 00000KT 3SM BR SCT006 BKN014 OVC100 13/12 A2959 RMK AO2 SFC
                 VIS 4 RAE01 SLP019 P0000 T01280117 =
2018-04-26 02:42 METAR KLGA 260642Z 00000KT 3SM BR SCT006 BKN014 OVC100 13/12 A2959 RMK AO2 SFC
                 VIS 4 RAE01 P0000 T01330122 =
2018-04-26 02:18 METAR KLGA 260618Z 00000KT 3SM BR SCT004 SCT033 BKN100 13/12 A2959 RMK AO2 SFC
                 VIS 4 VIS 1 1/4 R22 SW RAE01 P0000 T01280117 =
2018-04-26 01:51 METAR KLGA 260551Z 00000KT 3/4SM R04/P6000FT -RA BR BKN004 BKN046 OVC070 12/11
                 A2960 RMK AO2 SFC VIS 1 1/2 SLP024 P0018 60019 T01220111 10128 20117 56019 =
2018-04-26 01:41 METAR KLGA 260541Z COR 01003KT 3/4SM R04/P6000FT RA BR BKN004 BKN014 OVC043
                 12/11 A2961 RMK AO2 SFC VIS 1 1/2 P0018 T01220111 =
2018-04-26 00:51 METAR KLGA 260451Z 00000KT 3/4SM R04/P6000FT -RA BR OVC005 13/12 A2962 RMK AO2
                 SFC VIS 1 RAB19 SLP030 P0001 T01280117 401610100 =
2018-04-26 00:41 METAR KLGA 260441Z 00000KT 3/4SM R04/P6000FT -RA BR OVC005 13/12 A2963 RMK AO2
                 SFC VIS 1 RAB19 P0001 T01280117 =
2018-04-25 23:51 METAR KLGA 260351Z 07005KT 3/4SM R04/P6000FT BR BKN006 OVC015 12/11 A2964 RMK
                 AO2 SFC VIS 1 1/2 SLP036 T01220111 =
2018-04-25 23:42 METAR KLGA 260342Z 07004KT 3/4SM R04/P6000FT BR BKN006 OVC015 12/12 A2964 RMK
                 AO2 SFC VIS 1 1/2 T01220117 =
2018-04-25 23:22 METAR KLGA 260322Z 09004KT 3/4SM R04/3000VP6000FT BR BKN005 OVC015 12/11 A2964
                 RMK AO2 SFC VIS 1 T01220111 =
2018-04-25 22:51 METAR KLGA 260251Z 03003KT 3/4SM R04/5000VP6000FT BR OVC004 12/11 A2966 RMK AO2
                 SFC VIS 1 DZE0153 SLP042 P0000 60000 T01220111 58002 =
2018-04-25 22:46 METAR KLGA 260246Z 00000KT 3/4SM R04/5000VP6000FT BR OVC003 12/11 A2966 RMK AO2
                 SFC VIS 1 DZE0153 P0000 =
2018-04-25 22:32 METAR KLGA 260232Z 08004KT 3/4SM R04/5500VP6000FT BR OVC002 12/11 A2966 RMK AO2
                 DZE0153 P0000 T01170111 =
2018-04-25 22:05 METAR KLGA 260205Z 00000KT 1/4SM R04/3500VP6000FT FG VV003 12/11 A2967 RMK AO2
                 SFC VIS 1/2 DZE0153 P0000 T01170111 =
2018-04-25 21:51 METAR KLGA 260151Z 03003KT 3/4SM R04/5500VP6000FT -DZ BR VV003 12/11 A2967 RMK
                 AO2 SLP048 P0000 T01170111 =
2018-04-25 21:00 METAR KLGA 260100Z 06007KT 1/4SM R04/2600V4000FT -DZ FG VV002 12/11 A2967 RMK
                 AO2 SFC VIS 1/2 P0000 T01170111 =
2018-04-25 20:51 METAR KLGA 260051Z 06007KT 1/4SM R04/2400VP6000FT -DZ FG VV003 12/11 A2966 RMK
                 AO2 SFC VIS 1/2 SLP045 P0000 T01170111 =
2018-04-25 20:44 METAR KLGA 260044Z 06007KT 1/4SM R04/2400V5000FT -DZ FG VV003 12/11 A2966 RMK
                 AO2 SFC VIS 1/2 P0000 T01220111 =
2018-04-25 19:51 METAR KLGA 252351Z 06006KT 1/2SM R04/P6000FT -DZ BR OVC003 12/11 A2966 RMK AO2
                 SFC VIS 1 1/2 DZB43 SLP044 P0000 60003 T01220111 10161 20117 57008 =
2018-04-25 19:44 METAR KLGA 252344Z 06007KT 1/2SM R04/5500VP6000FT -DZ BR OVC004 12/11 A2966 RMK
                 AO2 SFC VIS 1 VIS 1/4 R22 SW DZB43 P0000 T01170111 =
2018-04-25 18:51 METAR KLGA 252251Z 05008KT 1 1/2SM R04/3500VP6000FT BR OVC004 12/11 A2967 RMK
                 AO2 SFC VIS 2 SLP046 T01220111 =
2018-04-25 17:51 METAR KLGA 252151Z 05008KT 1SM R04/4000VP6000FT BR OVC003 12/11 A2968 RMK AO2
                 SFC VIS 1 1/2 SLP051 T01170106 =
2018-04-25 17:15 METAR KLGA 252115Z 05010KT 1SM R04/P6000FT BR OVC004 12/11 A2968 RMK AO2 SFC VIS
                 2 1/2 T01220111 =
2018-04-25 16:51 METAR KLGA 252051Z 05009KT 1SM R04/P6000FT BR OVC003 12/11 A2969 RMK AO2 SFC VIS
                 2 1/2 DZE07B13E29RAB07E12B29E48 SLP053 P0001 60003 T01220111 56020 =
2018-04-25 16:19 METAR KLGA 252019Z 05008KT 1SM R04/4500VP6000FT -DZ BR OVC002 12/11 A2970 RMK
                 AO2 SFC VIS 2 1/2 DZE07B13RAB07E12 P0000 T01220111 =
2018-04-25 16:08 METAR KLGA 252008Z 04008KT 1SM R04/5000VP6000FT -RA BR OVC003 13/12 A2970 RMK
                 AO2 SFC VIS 2 1/2 DZE07RAB07 P0000 T01280117 =
2018-04-25 15:51 METAR KLGA 251951Z 10007KT 1SM R04/P6000FT -DZ BR OVC004 15/14 A2971 RMK AO2 SFC
                 VIS 2 1/2 SLP059 P0001 T01500139 =
2018-04-25 14:51 METAR KLGA 251851Z 13011KT 3/4SM R04/4000V4500FT -DZ BR OVC004 16/14 A2972 RMK
                 AO2 SFC VIS 1 1/2 DZB04 SLP064 P0001 T01560139 =
2018-04-25 13:51 METAR KLGA 251751Z 11012KT 2SM BR OVC004 16/14 A2975 RMK AO2 SFC VIS 2 1/2
                 RAB01E33 SLP073 P0003 60007 T01560144 10161 20111 56023 =
2018-04-25 13:47 METAR KLGA 251747Z 12012KT 2SM BR OVC004 16/14 A2975 RMK AO2 SFC VIS 2 1/2
                 RAB01E33 P0003 =
2018-04-25 12:51 METAR KLGA 251651Z 13016G21KT 4SM BR OVC005 16/14 A2977 RMK AO2 RAB02E12 SLP081
                 P0000 T01610139 =
2018-04-25 12:36 METAR KLGA 251636Z 12015G21KT 10SM OVC005 16/14 A2978 RMK AO2 RAB02E12 P0000
                 T01610139 =
2018-04-25 11:51 METAR KLGA 251551Z 13015G23KT 10SM OVC006 16/13 A2981 RMK AO2 PK WND 12027/1452
                 RAE48 SLP095 P0001 T01560133 =
2018-04-25 10:51 METAR KLGA 251451Z 12017G26KT 5SM -RA OVC007 16/13 A2984 RMK AO2 PK WND
                 12027/1431 RAE04B31 SLP105 P0000 60003 T01610133 56030 =
2018-04-25 09:51 METAR KLGA 251351Z 13013G24KT 8SM -RA OVC007 16/13 A2987 RMK AO2 RAE15B49 SLP115
                 P0000 T01560128 =
2018-04-25 08:51 METAR KLGA 251251Z 13013G23KT 10SM -RA OVC007 14/12 A2989 RMK AO2 PK WND
                 11027/1216 SLP123 P0003 T01390122 =
2018-04-25 08:31 METAR KLGA 251231Z 11014KT 3SM R04/5500VP6000FT -RA BR OVC007 14/12 A2991 RMK
                 AO2 PK WND 11027/1216 P0003 T01390122 =
2018-04-25 07:51 METAR KLGA 251151Z 07010KT 2SM R04/5000VP6000FT -RA BR OVC005 11/10 A2993 RMK
                 AO2 SLP136 P0017 60038 70042 T01110100 10133 20100 58012 =
2018-04-25 06:51 METAR KLGA 251051Z 04014KT 1/2SM R04/4500V6000FT RA BR OVC004 11/09 A2996 RMK
                 AO2 SFC VIS 1 SLP143 P0012 T01060094 =
2018-04-25 06:49 METAR KLGA 251049Z 04012KT 1/2SM R04/5000V6000FT RA BR OVC004 11/09 A2995 RMK
                 AO2 SFC VIS 1 1/4 P0011 =
2018-04-25 06:38 METAR KLGA 251038Z 04012KT 1SM R04/5500V6000FT RA BR OVC005 11/09 A2996 RMK AO2
                 SFC VIS 1 1/2 VIS 1 1/4V2 1/2 P0007 T01060094 =
2018-04-25 06:31 METAR KLGA 251031Z 05010KT 1SM R04/5500VP6000FT RA BR OVC006 11/09 A2996 RMK AO2
                 SFC VIS 1 1/2 P0006 T01060094 =
2018-04-25 05:51 METAR KLGA 250951Z 10012KT 4SM -RA BR OVC006 12/11 A2997 RMK AO2 RAB01 SLP147
                 P0002 T01220111 =
2018-04-25 05:46 METAR KLGA 250946Z 08009KT 5SM -RA BR OVC006 11/10 A2997 RMK AO2 RAB01 P0002 =

Support USWX by starting your Amazon purchase here.